createdAt,value
2019-03-15T00:01:40.522Z,2.12
2019-03-15T00:04:09.657Z,2.30
2019-03-15T00:06:38.776Z,1.85
2019-03-15T00:09:10.804Z,2.30
2019-03-15T00:11:39.942Z,1.80
2019-03-15T00:14:09.073Z,2.25
2019-03-15T00:16:38.206Z,1.70
2019-03-15T00:19:07.333Z,1.85
2019-03-15T00:21:36.453Z,1.80
2019-03-15T00:24:05.558Z,1.98
2019-03-15T00:26:34.747Z,2.33
2019-03-15T00:29:03.865Z,1.98
2019-03-15T00:31:32.982Z,2.25
2019-03-15T00:34:02.145Z,2.10
2019-03-15T00:36:31.223Z,2.25
2019-03-15T00:39:00.333Z,2.00
2019-03-15T00:41:29.464Z,1.98
2019-03-15T00:43:58.575Z,1.87
2019-03-15T00:46:27.681Z,1.80
2019-03-15T00:48:56.808Z,2.08
2019-03-15T00:51:25.922Z,1.77
2019-03-15T00:53:55.157Z,2.10
2019-03-15T00:56:24.248Z,1.65
2019-03-15T00:58:53.365Z,1.60
2019-03-15T01:01:22.480Z,1.72
2019-03-15T01:03:51.635Z,2.08
2019-03-15T01:06:20.747Z,1.75
2019-03-15T01:08:49.864Z,1.80
2019-03-15T01:11:18.998Z,1.80
2019-03-15T01:13:48.107Z,2.02
2019-03-15T01:16:17.223Z,2.00
2019-03-15T01:18:46.357Z,1.55
2019-03-15T01:21:15.487Z,1.82
2019-03-15T01:23:44.588Z,2.17
2019-03-15T01:26:13.718Z,1.80
2019-03-15T01:28:42.623Z,1.80
2019-03-15T01:31:11.697Z,1.82
2019-03-15T01:33:40.837Z,2.17
2019-03-15T01:36:10.279Z,2.08
2019-03-15T01:38:39.384Z,2.20
2019-03-15T01:41:08.507Z,2.50
2019-03-15T01:43:38.476Z,2.27
2019-03-15T01:46:08.425Z,2.40
2019-03-15T01:48:37.615Z,2.10
2019-03-15T01:51:06.506Z,1.92
2019-03-15T01:53:35.580Z,2.17
2019-03-15T01:56:04.707Z,1.95
2019-03-15T01:58:33.823Z,1.80
2019-03-15T02:01:02.935Z,2.02
2019-03-15T02:03:32.063Z,1.72
2019-03-15T02:06:01.185Z,1.80
2019-03-15T02:08:30.301Z,1.77
2019-03-15T02:10:59.437Z,1.95
2019-03-15T02:13:28.583Z,2.05
2019-03-15T02:15:57.655Z,2.20
2019-03-15T02:18:26.782Z,1.77
2019-03-15T02:20:55.895Z,1.92
2019-03-15T02:23:25.010Z,1.80
2019-03-15T02:25:54.146Z,2.15
2019-03-15T02:28:23.256Z,1.90
2019-03-15T02:30:52.375Z,2.27
2019-03-15T02:33:21.529Z,1.70
2019-03-15T02:35:50.912Z,2.15
2019-03-15T02:38:20.027Z,1.70
2019-03-15T02:40:49.226Z,1.87
2019-03-15T02:43:19.119Z,1.98
2019-03-15T02:45:48.501Z,1.87
2019-03-15T02:48:17.930Z,1.95
2019-03-15T02:50:47.325Z,1.80
2019-03-15T02:53:16.446Z,2.10
2019-03-15T02:55:45.574Z,2.02
2019-03-15T02:58:14.467Z,2.05
2019-03-15T03:00:43.543Z,1.87
2019-03-15T03:03:12.679Z,1.95
2019-03-15T03:05:41.574Z,2.08
2019-03-15T03:08:14.122Z,1.77
2019-03-15T03:10:43.536Z,1.90
2019-03-15T03:13:12.652Z,1.98
2019-03-15T03:15:41.762Z,2.20
2019-03-15T03:18:10.890Z,1.90
2019-03-15T03:20:40.031Z,1.90
2019-03-15T03:23:09.124Z,1.82
2019-03-15T03:25:38.511Z,2.10
2019-03-15T03:28:07.627Z,1.95
2019-03-15T03:30:36.783Z,1.82
2019-03-15T03:33:05.947Z,2.10
2019-03-15T03:35:35.072Z,2.05
2019-03-15T03:38:04.188Z,1.65
2019-03-15T03:40:33.318Z,1.90
2019-03-15T03:43:02.430Z,2.00
2019-03-15T03:45:31.591Z,2.15
2019-03-15T03:48:01.044Z,2.00
2019-03-15T03:50:30.166Z,2.20
2019-03-15T03:52:59.286Z,1.90
2019-03-15T03:55:28.397Z,2.10
2019-03-15T03:57:57.851Z,1.65
2019-03-15T04:02:55.557Z,1.67
2019-03-15T04:05:24.685Z,2.15
2019-03-15T04:07:53.831Z,2.12
2019-03-15T04:10:23.034Z,1.80
2019-03-15T04:12:52.141Z,1.82
2019-03-15T04:15:21.304Z,2.08
2019-03-15T04:17:50.434Z,1.80
2019-03-15T04:20:19.561Z,1.35
2019-03-15T04:22:48.668Z,2.27
2019-03-15T04:25:17.794Z,2.20
2019-03-15T04:27:46.924Z,2.40
2019-03-15T04:30:16.039Z,2.00
2019-03-15T04:32:45.168Z,2.15
2019-03-15T04:35:14.274Z,2.00
2019-03-15T04:37:43.421Z,1.87
2019-03-15T04:40:12.920Z,1.65
2019-03-15T04:45:10.469Z,1.70
2019-03-15T04:47:39.621Z,1.75
2019-03-15T04:50:09.282Z,2.08
2019-03-15T04:52:38.418Z,2.10
2019-03-15T04:55:07.602Z,1.85
2019-03-15T04:57:36.761Z,1.67
2019-03-15T05:00:12.787Z,2.08
2019-03-15T05:02:42.263Z,1.60
2019-03-15T05:07:39.796Z,1.75
2019-03-15T05:10:10.048Z,1.87
2019-03-15T05:12:39.178Z,1.70
2019-03-15T05:15:10.147Z,1.65
2019-03-15T05:17:39.262Z,2.02
2019-03-15T05:20:09.804Z,1.75
2019-03-15T05:22:38.980Z,1.82
2019-03-15T05:25:08.498Z,2.10
2019-03-15T05:30:10.088Z,2.00
2019-03-15T05:32:39.218Z,1.80
2019-03-15T05:40:45.451Z,1.85
2019-03-15T05:43:15.665Z,2.33
2019-03-15T05:46:32.124Z,1.85
2019-03-15T05:48:36.767Z,2.02
2019-03-15T05:51:32.289Z,2.25
2019-03-15T05:54:47.605Z,1.72
2019-03-15T05:57:35.231Z,1.80
2019-03-15T06:00:19.059Z,1.75
2019-03-15T06:02:50.767Z,2.00
2019-03-15T06:05:27.782Z,1.95
2019-03-15T06:11:35.324Z,1.90
2019-03-15T06:14:25.306Z,1.90
2019-03-15T06:17:25.720Z,1.70
2019-03-15T06:19:54.535Z,1.90
2019-03-15T06:22:45.760Z,1.92
2019-03-15T06:26:55.946Z,1.90
2019-03-15T06:28:17.295Z,1.77
2019-03-15T06:30:47.928Z,1.82
2019-03-15T06:33:29.013Z,1.80
2019-03-15T06:36:07.211Z,1.70
2019-03-15T06:38:43.909Z,2.25
2019-03-15T06:44:15.260Z,2.00
2019-03-15T06:49:40.958Z,1.87
2019-03-15T06:52:12.263Z,1.80
2019-03-15T06:57:36.987Z,1.70
2019-03-15T07:05:20.831Z,2.00
2019-03-15T07:08:37.627Z,2.10
2019-03-15T07:11:08.273Z,2.25
2019-03-15T07:13:40.283Z,1.80
2019-03-15T07:19:30.331Z,1.98
2019-03-15T07:22:12.522Z,2.00
2019-03-15T07:24:56.667Z,1.87
2019-03-15T07:32:07.416Z,2.05
2019-03-15T07:33:05.580Z,2.33
2019-03-15T07:35:43.581Z,2.00
2019-03-15T07:38:23.186Z,1.72
2019-03-15T07:43:41.551Z,1.90
2019-03-15T07:46:12.509Z,1.87
2019-03-15T07:49:01.692Z,2.10
2019-03-15T07:51:33.882Z,2.77
2019-03-15T07:54:17.434Z,2.05
2019-03-15T07:56:46.600Z,2.22
2019-03-15T07:59:19.598Z,2.50
2019-03-15T08:02:13.208Z,2.40
2019-03-15T08:04:50.459Z,2.12
2019-03-15T08:07:37.746Z,2.15
2019-03-15T08:10:12.912Z,2.20
2019-03-15T08:12:50.158Z,2.02
2019-03-15T08:15:46.892Z,2.10
2019-03-15T08:18:21.881Z,1.90
2019-03-15T08:21:10.571Z,2.10
2019-03-15T08:23:42.315Z,2.10
2019-03-15T08:26:49.864Z,2.50
2019-03-15T08:30:53.385Z,2.10
2019-03-15T08:33:09.161Z,1.90
2019-03-15T08:35:26.129Z,2.17
2019-03-15T08:41:02.008Z,2.47
2019-03-15T08:43:31.224Z,1.95
2019-03-15T08:46:18.836Z,2.10
2019-03-15T08:48:48.003Z,2.00
2019-03-15T08:54:36.217Z,2.10
2019-03-15T08:57:10.721Z,1.87
2019-03-15T08:59:52.392Z,1.82
2019-03-15T09:02:10.875Z,2.40
2019-03-15T09:05:14.402Z,2.12
2019-03-15T09:07:45.292Z,1.80
2019-03-15T09:10:29.264Z,2.52
2019-03-15T09:12:56.057Z,2.20
2019-03-15T09:15:27.276Z,1.87
2019-03-15T09:18:07.037Z,1.67
2019-03-15T09:20:45.869Z,2.26
2019-03-15T09:23:36.007Z,1.80
2019-03-15T09:26:30.009Z,1.82
2019-03-15T09:28:58.896Z,2.10
2019-03-15T09:31:27.763Z,1.62
2019-03-15T09:37:06.932Z,2.15
2019-03-15T09:39:36.086Z,1.87
2019-03-15T09:42:26.233Z,2.40
2019-03-15T09:45:20.051Z,2.05
2019-03-15T09:48:37.059Z,1.98
2019-03-15T09:54:01.918Z,2.05
2019-03-15T09:56:31.107Z,1.62
2019-03-15T09:59:00.250Z,1.75
2019-03-15T10:02:11.240Z,1.72
2019-03-15T10:05:10.753Z,1.85
2019-03-15T10:07:39.153Z,1.80
2019-03-15T10:10:13.487Z,1.98
2019-03-15T10:12:35.825Z,1.80
2019-03-15T10:15:08.045Z,1.92
2019-03-15T10:17:47.668Z,21.37
2019-03-15T10:20:16.891Z,11.28
2019-03-15T10:23:15.527Z,10.40
2019-03-15T10:29:15.600Z,8.05
2019-03-15T10:32:26.595Z,7.45
2019-03-15T10:38:03.875Z,9.20
2019-03-15T10:40:33.110Z,8.43
2019-03-15T10:46:36.253Z,7.25
2019-03-15T10:52:26.482Z,6.72
2019-03-15T10:55:31.017Z,7.00
2019-03-15T10:57:59.984Z,6.67
2019-03-15T11:00:29.383Z,5.87
2019-03-15T11:02:58.361Z,6.47
2019-03-15T11:05:46.795Z,7.60
2019-03-15T11:09:04.013Z,6.62
2019-03-15T11:11:43.701Z,8.33
2019-03-15T11:17:14.716Z,6.12
2019-03-15T11:19:43.861Z,6.25
2019-03-15T11:22:12.808Z,6.03
2019-03-15T11:24:43.991Z,5.92
2019-03-15T11:27:12.769Z,5.83
2019-03-15T11:29:43.974Z,5.67
2019-03-15T11:35:22.118Z,5.42
2019-03-15T11:38:03.278Z,4.87
2019-03-15T11:43:41.952Z,4.65
2019-03-15T11:47:56.371Z,5.10
2019-03-15T11:49:35.633Z,4.08
2019-03-15T11:52:30.284Z,4.10
2019-03-15T11:55:35.391Z,4.28
2019-03-15T11:58:30.924Z,3.67
2019-03-15T12:01:16.044Z,4.00
2019-03-15T12:03:59.175Z,3.60
2019-03-15T12:06:25.236Z,3.52
2019-03-15T12:08:54.449Z,3.12
2019-03-15T12:12:00.173Z,3.05
2019-03-15T12:14:43.236Z,3.08
2019-03-15T12:17:35.521Z,3.27
2019-03-15T12:20:13.489Z,2.95
2019-03-15T12:26:10.044Z,3.25
2019-03-15T12:28:56.146Z,3.15
2019-03-15T12:31:22.514Z,2.62
2019-03-15T12:33:51.616Z,2.83
2019-03-15T12:36:20.749Z,2.90
2019-03-15T12:39:42.953Z,2.50
2019-03-15T12:42:18.840Z,3.02
2019-03-15T12:45:47.382Z,2.60
2019-03-15T12:47:52.561Z,2.67
2019-03-15T12:50:26.499Z,2.45
2019-03-15T12:52:55.067Z,2.35
2019-03-15T12:55:24.255Z,2.65
2019-03-15T13:01:13.312Z,2.67
2019-03-15T13:06:57.226Z,2.42
2019-03-15T13:09:26.342Z,2.00
2019-03-15T13:11:55.464Z,2.30
2019-03-15T13:14:24.673Z,2.67
2019-03-15T13:17:20.049Z,2.37
2019-03-15T13:19:54.974Z,2.55
2019-03-15T13:22:21.626Z,1.98
2019-03-15T13:25:32.122Z,2.20
2019-03-15T13:28:03.843Z,2.10
2019-03-15T13:30:49.652Z,2.02
2019-03-15T13:33:20.428Z,1.90
2019-03-15T13:35:43.964Z,2.27
2019-03-15T13:38:13.179Z,1.87
2019-03-15T13:40:42.591Z,2.37
2019-03-15T13:43:21.993Z,2.37
2019-03-15T13:48:54.682Z,2.22
2019-03-15T13:51:40.235Z,1.92
2019-03-15T13:57:20.723Z,2.00
2019-03-15T13:59:39.571Z,2.33
2019-03-15T14:02:08.736Z,2.52
2019-03-15T14:04:37.967Z,2.15
2019-03-15T14:07:16.091Z,1.98
2019-03-15T14:09:45.049Z,2.35
2019-03-15T14:12:14.073Z,1.90
2019-03-15T14:17:39.932Z,1.90
2019-03-15T14:20:16.049Z,2.05
2019-03-15T14:22:45.203Z,2.02
2019-03-15T14:25:28.357Z,1.90
2019-03-15T14:27:57.595Z,1.83
2019-03-15T14:30:26.843Z,2.00
2019-03-15T14:32:57.769Z,1.77
2019-03-15T14:35:26.931Z,2.00
2019-03-15T14:37:55.919Z,1.87
2019-03-15T14:40:27.996Z,1.95
2019-03-15T14:43:00.166Z,2.10
2019-03-15T14:45:37.473Z,1.87
2019-03-15T14:48:46.730Z,1.57
2019-03-15T14:54:17.542Z,2.10
2019-03-15T14:57:06.185Z,1.70
2019-03-15T14:59:35.491Z,1.78
2019-03-15T15:02:04.640Z,1.70
2019-03-15T15:04:33.884Z,1.90
2019-03-15T15:07:03.110Z,1.80
2019-03-15T15:09:32.218Z,2.08
2019-03-15T15:12:01.181Z,2.00
2019-03-15T15:14:30.362Z,1.62
2019-03-15T15:17:06.681Z,2.00
2019-03-15T15:19:53.065Z,1.90
2019-03-15T15:25:18.601Z,1.67
2019-03-15T15:30:49.613Z,2.30
2019-03-15T15:33:06.191Z,1.75
2019-03-15T15:35:35.380Z,1.90
2019-03-15T15:38:04.565Z,1.65
2019-03-15T15:40:33.866Z,1.87
2019-03-15T15:43:03.009Z,2.10
2019-03-15T15:45:32.141Z,1.70
2019-03-15T15:48:01.285Z,1.90
2019-03-15T15:51:04.818Z,2.20
2019-03-15T15:53:48.795Z,1.60
2019-03-15T16:02:38.042Z,2.00
2019-03-15T16:05:28.003Z,1.62
2019-03-15T16:10:44.404Z,1.70
2019-03-15T16:13:40.841Z,1.55
2019-03-15T16:19:27.080Z,1.60
2019-03-15T16:22:23.377Z,1.67
2019-03-15T16:25:37.364Z,1.87
2019-03-15T16:27:53.975Z,1.87
2019-03-15T16:30:23.183Z,1.70
2019-03-15T16:35:39.080Z,1.60
2019-03-15T16:38:08.197Z,1.95
2019-03-15T16:40:37.492Z,1.92
2019-03-15T16:43:08.356Z,1.80
2019-03-15T16:45:39.150Z,2.12
2019-03-15T16:48:08.287Z,3.70
2019-03-15T16:50:37.416Z,26.25
2019-03-15T16:54:12.094Z,37.50
2019-03-15T16:56:40.539Z,65.42
2019-03-15T16:59:09.701Z,76.90
2019-03-15T17:01:38.936Z,72.72
2019-03-15T17:04:08.134Z,62.62
2019-03-15T17:06:37.249Z,62.33
2019-03-15T17:09:06.979Z,57.60
2019-03-15T17:11:36.155Z,55.48
2019-03-15T17:14:30.018Z,50.30
2019-03-15T17:17:02.297Z,47.95
2019-03-15T17:19:31.440Z,40.55
2019-03-15T17:22:00.582Z,40.98
2019-03-15T17:24:29.825Z,36.20
2019-03-15T17:26:58.965Z,33.95
2019-03-15T17:29:28.053Z,32.33
2019-03-15T17:31:57.219Z,30.32
2019-03-15T17:34:26.350Z,26.85
2019-03-15T17:37:06.059Z,26.30
2019-03-15T17:42:29.644Z,20.97
2019-03-15T17:51:31.079Z,17.37
2019-03-15T17:54:03.329Z,17.37
2019-03-15T17:59:35.264Z,13.20
2019-03-15T18:02:04.379Z,13.15
2019-03-15T18:04:33.497Z,11.43
2019-03-15T18:07:06.085Z,10.56
2019-03-15T18:09:35.166Z,9.93
2019-03-15T18:12:04.284Z,9.43
2019-03-15T18:14:33.259Z,4.92
2019-03-15T18:17:02.332Z,7.97
2019-03-15T18:19:31.444Z,6.90
2019-03-15T18:22:00.574Z,5.97
2019-03-15T18:24:29.699Z,6.22
2019-03-15T18:26:58.810Z,6.22
2019-03-15T18:29:27.953Z,5.45
2019-03-15T18:31:57.076Z,5.45
2019-03-15T18:34:28.150Z,5.50
2019-03-15T18:36:57.282Z,6.12
2019-03-15T18:39:26.408Z,5.55
2019-03-15T18:41:55.517Z,5.05
2019-03-15T18:44:24.653Z,5.25
2019-03-15T18:46:53.767Z,5.15
2019-03-15T18:49:22.895Z,5.55
2019-03-15T18:51:52.020Z,4.00
2019-03-15T18:54:21.138Z,4.37
2019-03-15T18:56:50.280Z,4.35
2019-03-15T18:59:19.407Z,4.58
2019-03-15T19:01:48.299Z,3.77
2019-03-15T19:04:17.158Z,4.22
2019-03-15T19:06:46.043Z,3.80
2019-03-15T19:09:14.898Z,4.05
2019-03-15T19:14:12.163Z,3.80
2019-03-15T19:16:41.059Z,3.12
2019-03-15T19:19:10.133Z,3.33
2019-03-15T19:21:39.303Z,3.65
2019-03-15T19:24:08.376Z,3.50
2019-03-15T19:26:37.491Z,3.02
2019-03-15T19:29:06.870Z,3.62
2019-03-15T19:31:35.756Z,2.95
2019-03-15T19:34:04.842Z,2.75
2019-03-15T19:36:33.968Z,2.80
2019-03-15T19:39:04.259Z,2.65
2019-03-15T19:41:33.378Z,2.77
2019-03-15T19:44:02.521Z,2.83
2019-03-15T19:46:31.620Z,2.75
2019-03-15T19:49:00.730Z,2.75
2019-03-15T19:51:29.869Z,2.25
2019-03-15T19:53:58.997Z,2.22
2019-03-15T19:56:28.082Z,2.30
2019-03-15T20:01:28.861Z,2.60
2019-03-15T20:03:56.484Z,2.30
2019-03-15T20:06:25.612Z,2.15
2019-03-15T20:08:54.730Z,2.12
2019-03-15T20:11:23.889Z,1.90
2019-03-15T20:16:21.433Z,1.90
2019-03-15T20:18:50.547Z,2.02
2019-03-15T20:21:19.676Z,2.30
2019-03-15T20:23:49.019Z,1.90
2019-03-15T20:26:18.143Z,1.90
2019-03-15T20:28:47.300Z,2.15
2019-03-15T20:31:17.555Z,1.80
2019-03-15T20:33:46.670Z,1.65
2019-03-15T20:36:15.812Z,2.00
2019-03-15T20:38:44.937Z,2.15
2019-03-15T20:41:19.499Z,2.08
2019-03-15T20:43:47.048Z,1.72
2019-03-15T20:46:16.215Z,1.95
2019-03-15T20:48:45.281Z,1.82
2019-03-15T20:51:14.414Z,1.80
2019-03-15T20:53:43.524Z,2.00
2019-03-15T20:56:12.632Z,1.80
2019-03-15T20:58:41.767Z,1.87
2019-03-15T21:01:10.887Z,1.57
2019-03-15T21:03:39.787Z,2.10
2019-03-15T21:06:08.910Z,1.95
2019-03-15T21:08:38.045Z,2.25
2019-03-15T21:11:07.163Z,2.27
2019-03-15T21:13:36.300Z,2.08
2019-03-15T21:18:34.174Z,2.08
2019-03-15T21:21:03.289Z,2.45
2019-03-15T21:23:32.654Z,1.85
2019-03-15T21:26:01.771Z,2.42
2019-03-15T21:28:30.682Z,1.90
2019-03-15T21:30:59.538Z,1.90
2019-03-15T21:33:28.399Z,2.05
2019-03-15T21:35:57.821Z,2.00
2019-03-15T21:40:55.118Z,1.65
2019-03-15T21:43:24.024Z,1.77
2019-03-15T21:45:53.093Z,1.75
2019-03-15T21:48:22.206Z,2.00
2019-03-15T21:50:53.365Z,1.60
2019-03-15T21:53:22.483Z,1.90
2019-03-15T21:55:51.609Z,2.45
2019-03-15T21:58:20.719Z,1.90
2019-03-15T22:01:01.673Z,2.20
2019-03-15T22:03:20.664Z,2.00
2019-03-15T22:05:49.784Z,1.67
2019-03-15T22:08:18.897Z,1.70
2019-03-15T22:10:48.017Z,1.77
2019-03-15T22:13:17.132Z,2.10
2019-03-15T22:15:46.241Z,1.82
2019-03-15T22:18:15.350Z,1.70
2019-03-15T22:20:44.474Z,1.87
2019-03-15T22:23:13.592Z,2.00
2019-03-15T22:25:42.704Z,2.42
2019-03-15T22:28:11.913Z,1.45
2019-03-15T22:30:41.026Z,1.80
2019-03-15T22:33:10.146Z,1.77
2019-03-15T22:35:39.291Z,2.25
2019-03-15T22:38:08.389Z,1.70
2019-03-15T22:40:37.586Z,1.80
2019-03-15T22:43:06.790Z,1.70
2019-03-15T22:45:35.697Z,2.00
2019-03-15T22:48:04.765Z,1.80
2019-03-15T22:50:33.888Z,1.60
2019-03-15T22:53:02.996Z,1.55
2019-03-15T22:55:32.118Z,1.77
2019-03-15T22:58:01.238Z,1.80
2019-03-15T23:00:37.503Z,1.80
2019-03-15T23:03:06.401Z,1.77
2019-03-15T23:05:35.458Z,2.00
2019-03-15T23:08:04.571Z,2.17
2019-03-15T23:10:33.702Z,2.15
2019-03-15T23:13:02.821Z,1.62
2019-03-15T23:15:31.942Z,1.70
2019-03-15T23:18:01.053Z,1.67
2019-03-15T23:20:30.174Z,1.87
2019-03-15T23:22:59.277Z,1.60
2019-03-15T23:25:28.418Z,1.72
2019-03-15T23:27:57.526Z,2.10
2019-03-15T23:30:26.637Z,2.25
2019-03-15T23:32:56.009Z,1.87
2019-03-15T23:35:25.123Z,1.60
2019-03-15T23:37:54.243Z,1.98
2019-03-15T23:40:23.154Z,1.80
2019-03-15T23:42:52.227Z,1.95
2019-03-15T23:45:21.337Z,1.70
2019-03-15T23:47:50.479Z,1.67
2019-03-15T23:50:19.590Z,1.70
2019-03-15T23:52:48.708Z,1.90
2019-03-15T23:55:17.921Z,1.50
2019-03-15T23:57:46.812Z,1.80
